createdAt,value
2018-07-04T00:04:30.068Z,17.17
2018-07-04T00:07:18.962Z,16.97
2018-07-04T00:12:54.679Z,16.96
2018-07-04T00:15:46.117Z,16.88
2018-07-04T00:18:33.117Z,16.67
2018-07-04T00:21:20.142Z,16.64
2018-07-04T00:26:45.750Z,16.83
2018-07-04T00:34:57.434Z,16.61
2018-07-04T00:37:46.354Z,16.50
2018-07-04T00:40:33.323Z,16.41
2018-07-04T00:43:20.337Z,16.31
2018-07-04T00:54:11.658Z,16.18
2018-07-04T00:56:58.781Z,16.04
2018-07-04T00:59:46.821Z,15.56
2018-07-04T01:02:33.826Z,15.44
2018-07-04T01:05:20.823Z,15.47
2018-07-04T01:08:07.841Z,15.63
2018-07-04T01:10:54.801Z,15.72
2018-07-04T01:16:17.310Z,15.74
2018-07-04T01:19:05.105Z,15.73
2018-07-04T01:21:52.047Z,15.69
2018-07-04T01:29:59.149Z,15.59
2018-07-04T01:35:24.757Z,15.61
2018-07-04T01:38:15.445Z,15.46
2018-07-04T01:41:02.481Z,15.41
2018-07-04T01:43:49.474Z,15.41
2018-07-04T01:49:12.233Z,15.36
2018-07-04T01:54:34.863Z,15.17
2018-07-04T01:57:22.050Z,15.07
2018-07-04T02:00:09.025Z,14.96
2018-07-04T02:05:33.732Z,15.07
2018-07-04T02:14:27.198Z,15.17
2018-07-04T02:20:02.205Z,15.21
2018-07-04T02:22:49.343Z,15.21
2018-07-04T02:25:36.262Z,15.17
2018-07-04T02:31:02.821Z,15.32
2018-07-04T02:33:50.926Z,15.27
2018-07-04T02:36:38.085Z,15.16
2018-07-04T02:39:25.935Z,15.11
2018-07-04T02:42:14.233Z,14.96
2018-07-04T02:45:01.482Z,15.00
2018-07-04T02:47:48.285Z,15.02
2018-07-04T02:50:35.234Z,14.99
2018-07-04T02:56:11.702Z,15.08
2018-07-04T03:04:42.639Z,15.14
2018-07-04T03:07:29.757Z,15.05
2018-07-04T03:15:33.393Z,15.03
2018-07-04T03:23:43.425Z,15.19
2018-07-04T03:26:30.425Z,15.25
2018-07-04T03:29:21.690Z,15.25
2018-07-04T03:32:09.497Z,15.27
2018-07-04T03:34:56.518Z,15.29
2018-07-04T03:37:43.445Z,15.34
2018-07-04T03:45:54.157Z,15.58
2018-07-04T03:51:16.653Z,15.67
2018-07-04T03:56:42.176Z,15.61
2018-07-04T04:02:06.709Z,15.66
2018-07-04T04:04:53.697Z,15.66
2018-07-04T04:10:36.990Z,15.91
2018-07-04T04:13:24.245Z,15.98
2018-07-04T04:16:11.179Z,16.13
2018-07-04T04:21:33.957Z,16.56
2018-07-04T04:24:21.908Z,16.61
2018-07-04T04:27:09.919Z,16.73
2018-07-04T04:29:57.908Z,16.97
2018-07-04T04:32:45.054Z,17.04
2018-07-04T04:35:31.884Z,17.04
2018-07-04T04:38:19.917Z,17.10
2018-07-04T04:43:42.504Z,17.47
2018-07-04T04:46:29.363Z,17.43
2018-07-04T04:49:18.366Z,17.46
2018-07-04T04:54:47.254Z,17.58
2018-07-04T05:00:16.938Z,17.62
2018-07-04T05:03:04.075Z,17.64
2018-07-04T05:08:37.876Z,17.85
2018-07-04T05:11:24.926Z,17.84
2018-07-04T05:14:15.685Z,17.92
2018-07-04T05:22:23.493Z,18.25
2018-07-04T05:27:46.305Z,18.20
2018-07-04T05:30:34.385Z,18.36
2018-07-04T05:33:21.353Z,18.34
2018-07-04T05:41:22.149Z,18.74
2018-07-04T05:49:36.131Z,19.06
2018-07-04T05:52:24.046Z,19.02
2018-07-04T05:58:02.734Z,19.14
2018-07-04T06:00:55.041Z,19.19
2018-07-04T06:09:02.069Z,19.57
2018-07-04T06:14:33.637Z,20.04
2018-07-04T06:17:20.380Z,20.12
2018-07-04T06:20:07.368Z,20.38
2018-07-04T06:22:54.166Z,20.53
2018-07-04T06:25:41.431Z,20.68
2018-07-04T06:28:28.547Z,20.98
2018-07-04T06:34:03.242Z,21.63
2018-07-04T06:36:51.289Z,21.69
2018-07-04T06:39:19.585Z,21.74
2018-07-04T06:41:48.876Z,21.88
2018-07-04T06:44:17.306Z,22.34
2018-07-04T06:46:47.324Z,22.45
2018-07-04T06:49:19.218Z,22.76
2018-07-04T06:51:52.590Z,23.06
2018-07-04T06:54:20.886Z,23.47
2018-07-04T06:56:50.096Z,23.46
2018-07-04T06:59:19.285Z,23.41
2018-07-04T07:01:49.505Z,23.21
2018-07-04T07:10:10.019Z,23.16
2018-07-04T07:13:03.239Z,23.07
2018-07-04T07:15:53.586Z,23.04
2018-07-04T07:21:19.765Z,23.17
2018-07-04T07:26:53.554Z,23.55
2018-07-04T07:29:41.073Z,23.62
2018-07-04T07:32:28.191Z,24.09
2018-07-04T07:37:56.409Z,24.28
2018-07-04T07:40:43.302Z,23.96
2018-07-04T07:43:31.432Z,24.02
2018-07-04T07:46:19.430Z,24.16
2018-07-04T07:49:06.615Z,23.72
2018-07-04T07:51:54.019Z,23.68
2018-07-04T07:54:40.864Z,23.81
2018-07-04T08:00:21.508Z,24.05
2018-07-04T08:03:09.471Z,24.30
2018-07-04T08:05:57.929Z,23.92
2018-07-04T08:08:44.954Z,24.35
2018-07-04T08:11:32.093Z,24.57
2018-07-04T08:14:19.116Z,24.64
2018-07-04T08:17:06.041Z,25.04
2018-07-04T08:19:52.897Z,24.84
2018-07-04T08:27:52.566Z,25.34
2018-07-04T08:30:39.604Z,25.19
2018-07-04T08:33:26.696Z,25.27
2018-07-04T08:36:13.572Z,25.72
2018-07-04T08:39:02.615Z,25.41
2018-07-04T08:41:58.622Z,25.51
2018-07-04T08:44:47.085Z,25.77
2018-07-04T08:47:37.530Z,25.80
2018-07-04T08:50:24.468Z,26.41
2018-07-04T08:53:11.306Z,26.92
2018-07-04T08:55:58.371Z,26.86
2018-07-04T09:01:24.336Z,26.95
2018-07-04T09:04:11.462Z,26.97
2018-07-04T09:09:48.341Z,27.22
2018-07-04T09:12:35.349Z,26.87
2018-07-04T09:15:33.614Z,26.30
2018-07-04T09:18:21.701Z,26.44
2018-07-04T09:21:08.754Z,26.32
2018-07-04T09:23:57.874Z,25.70
2018-07-04T09:26:48.390Z,25.55
2018-07-04T09:29:39.860Z,25.54
2018-07-04T09:32:26.938Z,25.48
2018-07-04T09:35:14.149Z,26.04
2018-07-04T09:38:02.897Z,25.82
2018-07-04T09:43:30.850Z,25.79
2018-07-04T09:46:18.778Z,25.30
2018-07-04T09:49:05.856Z,25.51
2018-07-04T09:59:42.279Z,25.64
2018-07-04T10:02:30.077Z,25.89
2018-07-04T10:05:17.205Z,25.66
2018-07-04T10:08:05.299Z,25.94
2018-07-04T10:10:52.158Z,25.91
2018-07-04T10:13:44.129Z,26.20
2018-07-04T10:16:32.245Z,27.23
2018-07-04T10:19:20.291Z,27.56
2018-07-04T10:27:33.215Z,28.20
2018-07-04T10:30:20.214Z,27.97
2018-07-04T10:33:14.684Z,27.80
2018-07-04T10:36:04.009Z,27.87
2018-07-04T10:38:51.208Z,27.56
2018-07-04T10:41:38.188Z,26.69
2018-07-04T10:44:27.299Z,27.03
2018-07-04T10:47:20.156Z,26.41
2018-07-04T10:50:09.245Z,26.47
2018-07-04T10:52:59.904Z,26.95
2018-07-04T10:55:50.154Z,27.51
2018-07-04T10:58:37.222Z,29.20
2018-07-04T11:01:27.415Z,31.40
2018-07-04T11:09:25.819Z,34.53
2018-07-04T11:14:51.466Z,34.67
2018-07-04T11:17:40.564Z,35.07
2018-07-04T11:20:31.969Z,35.61
2018-07-04T11:28:42.759Z,34.01
2018-07-04T11:34:07.356Z,33.02
2018-07-04T11:36:56.642Z,32.40
2018-07-04T11:39:43.503Z,30.90
2018-07-04T11:42:30.415Z,29.51
2018-07-04T11:45:17.278Z,29.12
2018-07-04T11:47:45.541Z,28.47
2018-07-04T11:50:13.812Z,28.99
2018-07-04T11:52:42.973Z,27.97
2018-07-04T11:55:11.242Z,27.34
2018-07-04T12:00:25.043Z,23.21
2018-07-04T12:03:14.018Z,22.83
2018-07-04T12:06:02.753Z,22.59
2018-07-04T12:08:31.995Z,22.38
2018-07-04T12:11:00.480Z,23.96
2018-07-04T12:13:28.664Z,24.84
2018-07-04T12:15:56.910Z,24.02
2018-07-04T12:18:25.334Z,25.01
2018-07-04T12:20:53.634Z,26.17
2018-07-04T12:23:24.988Z,29.04
2018-07-04T12:26:01.023Z,30.36
2018-07-04T12:28:30.268Z,30.95
2018-07-04T12:30:58.553Z,29.89
2018-07-04T12:33:31.441Z,29.79
2018-07-04T12:36:02.984Z,29.12
2018-07-04T12:38:31.475Z,27.81
2018-07-04T12:41:00.690Z,27.08
2018-07-04T12:43:28.958Z,26.19
2018-07-04T12:45:57.217Z,26.27
2018-07-04T12:48:25.485Z,27.17
2018-07-04T12:50:53.747Z,28.87
2018-07-04T12:53:22.014Z,27.14
2018-07-04T12:58:49.749Z,29.15
2018-07-04T13:01:36.994Z,29.50
2018-07-04T13:07:00.671Z,30.29
2018-07-04T13:15:09.845Z,28.13
2018-07-04T13:23:13.957Z,28.06
2018-07-04T13:26:00.842Z,27.76
2018-07-04T13:28:51.466Z,27.58
2018-07-04T13:31:51.405Z,27.12
2018-07-04T13:40:01.094Z,27.28
2018-07-04T13:42:49.985Z,27.51
2018-07-04T13:48:14.682Z,28.12
2018-07-04T13:51:01.533Z,28.54
2018-07-04T13:53:50.589Z,29.56
2018-07-04T13:56:38.533Z,29.37
2018-07-04T13:59:26.348Z,28.26
2018-07-04T14:02:15.216Z,27.57
2018-07-04T14:05:04.327Z,27.94
2018-07-04T14:10:28.242Z,28.84
2018-07-04T14:15:51.203Z,29.13
2018-07-04T14:18:38.134Z,28.81
2018-07-04T14:21:25.987Z,28.20
2018-07-04T14:24:16.627Z,28.17
2018-07-04T14:27:03.510Z,27.38
2018-07-04T14:32:26.070Z,27.59
2018-07-04T14:35:13.086Z,27.07
2018-07-04T14:38:01.935Z,26.59
2018-07-04T14:40:58.628Z,26.47
2018-07-04T14:43:55.177Z,26.88
2018-07-04T14:46:50.196Z,27.03
2018-07-04T14:49:38.192Z,27.70
2018-07-04T14:52:25.264Z,27.87
2018-07-04T14:55:13.239Z,27.36
2018-07-04T15:03:22.143Z,29.16
2018-07-04T15:06:09.518Z,29.62
2018-07-04T15:08:57.301Z,29.21
2018-07-04T15:11:44.155Z,28.83
2018-07-04T15:20:17.082Z,27.43
2018-07-04T15:23:06.177Z,26.95
2018-07-04T15:28:38.914Z,26.34
2018-07-04T15:31:30.797Z,25.68
2018-07-04T15:39:49.646Z,25.57
2018-07-04T15:42:37.540Z,25.26
2018-07-04T15:45:25.390Z,25.05
2018-07-04T15:48:16.541Z,24.99
2018-07-04T15:51:04.575Z,25.55
2018-07-04T15:53:51.324Z,26.35
2018-07-04T15:56:38.322Z,27.68
2018-07-04T15:59:29.798Z,28.28
2018-07-04T16:02:16.704Z,28.41
2018-07-04T16:07:39.520Z,30.05
2018-07-04T16:10:26.542Z,28.37
2018-07-04T16:13:24.895Z,27.59
2018-07-04T16:16:12.877Z,28.64
2018-07-04T16:18:59.634Z,27.96
2018-07-04T16:24:22.176Z,32.09
2018-07-04T16:27:09.317Z,32.61
2018-07-04T16:29:56.228Z,32.50
2018-07-04T16:37:56.223Z,28.74
2018-07-04T16:40:51.085Z,27.92
2018-07-04T16:43:38.230Z,26.65
2018-07-04T16:46:35.860Z,26.39
2018-07-04T16:49:25.053Z,26.09
2018-07-04T17:00:06.096Z,26.00
2018-07-04T17:02:55.094Z,25.52
2018-07-04T17:05:43.026Z,24.93
2018-07-04T17:08:32.038Z,24.37
2018-07-04T17:11:19.013Z,24.10
2018-07-04T17:14:17.360Z,24.04
2018-07-04T17:17:12.836Z,23.83
2018-07-04T17:19:59.668Z,23.66
2018-07-04T17:28:05.688Z,24.33
2018-07-04T17:30:54.780Z,24.28
2018-07-04T17:33:42.608Z,24.13
2018-07-04T17:44:24.715Z,23.76
2018-07-04T17:47:11.507Z,23.54
2018-07-04T17:49:58.631Z,23.54
2018-07-04T17:52:45.428Z,23.55
2018-07-04T17:58:17.685Z,23.56
2018-07-04T18:01:04.830Z,23.41
2018-07-04T18:06:27.423Z,23.40
2018-07-04T18:09:14.585Z,23.22
2018-07-04T18:17:13.454Z,23.18
2018-07-04T18:20:00.437Z,22.99
2018-07-04T18:22:47.385Z,22.88
2018-07-04T18:25:37.671Z,22.80
2018-07-04T18:28:26.849Z,22.68
2018-07-04T18:36:29.316Z,22.54
2018-07-04T18:39:16.315Z,22.36
2018-07-04T18:47:19.017Z,22.03
2018-07-04T18:50:09.544Z,21.68
2018-07-04T18:52:56.434Z,21.25
2018-07-04T18:55:43.357Z,20.86
2018-07-04T19:03:54.488Z,20.94
2018-07-04T19:06:41.558Z,20.67
2018-07-04T19:09:30.560Z,20.46
2018-07-04T19:12:18.642Z,20.30
2018-07-04T19:15:09.332Z,20.19
2018-07-04T19:17:56.353Z,20.04
2018-07-04T19:20:43.606Z,19.84
2018-07-04T19:23:34.308Z,19.72
2018-07-04T19:31:45.652Z,19.73
2018-07-04T19:34:43.913Z,19.68
2018-07-04T19:37:33.999Z,19.58
2018-07-04T19:42:59.498Z,19.69
2018-07-04T19:56:40.441Z,19.15
2018-07-04T19:59:27.325Z,18.96
2018-07-04T20:02:14.149Z,18.73
2018-07-04T20:05:05.672Z,18.49
2018-07-04T20:10:45.377Z,18.44
2018-07-04T20:13:40.045Z,18.22
2018-07-04T20:19:02.748Z,18.08
2018-07-04T20:21:50.948Z,17.99
2018-07-04T20:30:01.665Z,18.05
2018-07-04T20:33:03.336Z,17.63
2018-07-04T20:35:59.948Z,17.33
2018-07-04T20:41:32.997Z,17.31
2018-07-04T20:44:21.073Z,17.08
2018-07-04T20:47:08.208Z,17.03
2018-07-04T20:57:47.536Z,17.22
2018-07-04T21:00:41.826Z,16.97
2018-07-04T21:03:29.861Z,16.82
2018-07-04T21:06:16.903Z,16.95
2018-07-04T21:09:03.896Z,16.87
2018-07-04T21:11:50.752Z,16.74
2018-07-04T21:14:46.733Z,16.56
2018-07-04T21:17:34.738Z,16.34
2018-07-04T21:22:59.410Z,16.15
2018-07-04T21:25:46.622Z,16.07
2018-07-04T21:28:33.438Z,15.90
2018-07-04T21:31:21.586Z,15.81
2018-07-04T21:36:47.418Z,16.00
2018-07-04T21:39:34.326Z,15.99
2018-07-04T21:45:03.957Z,15.56
2018-07-04T21:47:50.792Z,15.39
2018-07-04T21:53:16.334Z,15.17
2018-07-04T21:56:05.413Z,15.09
2018-07-04T21:58:52.449Z,14.91
2018-07-04T22:01:39.542Z,15.04
2018-07-04T22:07:04.327Z,15.42
2018-07-04T22:09:53.301Z,15.52
2018-07-04T22:15:26.977Z,15.41
2018-07-04T22:18:14.031Z,15.34
2018-07-04T22:21:01.828Z,15.32
2018-07-04T22:23:48.821Z,15.20
2018-07-04T22:31:50.705Z,15.39
2018-07-04T22:34:37.705Z,15.33
2018-07-04T22:37:25.678Z,15.33
2018-07-04T22:42:50.344Z,15.38
2018-07-04T22:45:38.450Z,15.19
2018-07-04T22:48:28.572Z,15.11
2018-07-04T22:51:17.546Z,15.14
2018-07-04T22:56:43.173Z,14.99
2018-07-04T22:59:30.306Z,14.84
2018-07-04T23:02:17.278Z,14.81
2018-07-04T23:07:39.930Z,14.80
2018-07-04T23:10:27.877Z,14.64
2018-07-04T23:15:54.494Z,14.68
2018-07-04T23:18:41.506Z,14.64
2018-07-04T23:21:28.529Z,14.57
2018-07-04T23:29:38.947Z,14.59
2018-07-04T23:32:26.026Z,14.46
2018-07-04T23:35:13.036Z,14.46
2018-07-04T23:38:00.029Z,14.40
2018-07-04T23:40:47.075Z,14.25
2018-07-04T23:43:36.005Z,14.23
2018-07-04T23:49:17.974Z,13.94
2018-07-04T23:52:04.945Z,13.99
2018-07-04T23:54:52.406Z,14.18
2018-07-04T23:57:39.257Z,14.37
